Bay Bridge — 3FCS5 — position and weather

sailwx.info

Track history (hours):
 
Tides and Currents Weather Stations Pressure Air Temp Water Temp Dewpoint Dewpoint Depression Visibility Wind Speed Wind Dir Waves Ship Positions

Bay Bridge

Last reported at 2014-Jul-23 18:33 UTC. Time now 2014-Jul-31 11:28 UTC.
Position N 38°32' W 124°23'.

Length 267 m; draft 11 m.

Type: Ship (hazmat cat A). MMSI: 354120000.

Date/timePositionNaut miles runAvg speedWind from/ knotsBaromVisibWave heightAir tempDewpointWater temp
2014-Jul-23 18:33N 38°32' W 124°23'1919.1
2014-Jul-23 17:33N 38°22' W 124°02'2019.6
2014-Jul-23 16:33N 38°12' W 123°40'1918.9
2014-Jul-23 15:33N 38°06' W 123°17'2019.6
2014-Jul-23 14:33N 37°54' W 122°58'1717.1
2014-Jul-23 13:33N 37°46' W 122°39'1413.9
2014-Jul-23 12:33N 37°48' W 122°21'2 1.8
2014-Jul-23 11:33N 37°49' W 122°19'0 0.0
2014-Jul-23 10:33N 37°49' W 122°19'0 0.0
2014-Jul-23 09:33N 37°49' W 122°19'0 0.0
2014-Jul-23 08:33N 37°49' W 122°19'0 0.0
2014-Jul-23 07:33N 37°49' W 122°19'0 0.0
2014-Jul-23 06:33N 37°49' W 122°19'0 0.0
2014-Jul-23 05:33N 37°49' W 122°19'0 0.0
2014-Jul-23 04:33N 37°49' W 122°19'0 0.0
2014-Jul-23 03:33N 37°49' W 122°19'0 0.0
2014-Jul-23 02:33N 37°49' W 122°19'0 0.0
2014-Jul-23 01:33N 37°49' W 122°19'0 0.0
2014-Jul-23 00:33N 37°49' W 122°19'0 0.0
2014-Jul-22 23:33N 37°49' W 122°19'0 0.0
2014-Jul-22 22:33N 37°49' W 122°19'0 0.0
2014-Jul-22 21:33N 37°49' W 122°19'0 0.0
2014-Jul-22 20:33N 37°49' W 122°19'0 0.0
2014-Jul-22 19:33N 37°49' W 122°19'0 0.0
2014-Jul-22 18:33N 37°49' W 122°19'0 0.0
2014-Jul-22 17:33N 37°49' W 122°19'0 0.0
2014-Jul-22 16:33N 37°49' W 122°19'0 0.0
2014-Jul-22 15:33N 37°49' W 122°19'0 0.0
2014-Jul-22 14:33N 37°49' W 122°19'0 0.0
2014-Jul-22 13:33N 37°49' W 122°19'4 4.0
2014-Jul-22 12:33N 37°49' W 122°24'1212.4
2014-Jul-22 11:33N 37°45' W 122°39'10 9.7
2014-Jul-22 10:33N 37°39' W 122°49'1111.2
2014-Jul-22 09:33N 37°33' W 123°01'1413.8
2014-Jul-22 08:33N 37°19' W 123°01'1817.6
2014-Jul-22 07:33N 37°02' W 122°56'1918.9
2014-Jul-22 06:33N 36°45' W 122°46'2020.1
2014-Jul-22 05:33N 36°27' W 122°35'2020.1
2014-Jul-22 04:33N 36°09' W 122°25'2020.2
2014-Jul-22 03:33N 35°52' W 122°11'2019.8
2014-Jul-22 02:33N 35°36' W 121°56'2219.7
2014-Jul-22 01:27N 35°19' W 121°40'4019.8
2014-Jul-21 23:26N 34°47' W 121°11'2519.0
2014-Jul-21 22:07N 34°27' W 120°52'2818.1
2014-Jul-21 20:33N 34°19' W 120°19'518.0
2014-Jul-21 20:18N 34°18' W 120°14'1318.1
2014-Jul-21 19:34N 34°14' W 119°58'1818.0
2014-Jul-21 18:33N 34°09' W 119°37'7712.8
2014-Jul-21 12:33N 33°41' W 118°12'4 1.2
2014-Jul-21 09:33N 33°45' W 118°12'0 0.0
2014-Jul-21 08:27N 33°45' W 118°12'0 0.0
2014-Jul-21 07:21N 33°45' W 118°12'0 0.0
2014-Jul-21 06:15N 33°45' W 118°12'0 0.0
2014-Jul-21 01:06N 33°45' W 118°12'0 0.0
2014-Jul-21 00:24N 33°45' W 118°12'0 0.0
2014-Jul-20 23:33N 33°45' W 118°12'0 0.0
2014-Jul-20 22:33N 33°45' W 118°12'0 0.1
2014-Jul-20 21:33N 33°45' W 118°12'0 0.0
2014-Jul-20 20:30N 33°45' W 118°12'0 0.0
2014-Jul-20 19:30N 33°45' W 118°12'0 0.1
2014-Jul-20 18:30N 33°45' W 118°12'0 0.1
2014-Jul-20 17:33N 33°45' W 118°12'0 0.0
2014-Jul-20 16:30N 33°45' W 118°12'0 0.0
2014-Jul-20 12:12N 33°45' W 118°12'0 0.0
2014-Jul-20 06:21N 33°45' W 118°12'0 0.0
2014-Jul-20 05:30N 33°45' W 118°12'0 0.0
2014-Jul-20 02:06N 33°45' W 118°12'0 0.1
2014-Jul-20 01:30N 33°45' W 118°12'0 0.0
2014-Jul-19 23:18N 33°45' W 118°12'0 0.1
2014-Jul-19 22:30N 33°45' W 118°12'0 0.0
2014-Jul-19 21:30N 33°45' W 118°12'0 0.0
2014-Jul-19 20:30N 33°45' W 118°12'0 0.0
2014-Jul-19 17:30N 33°45' W 118°12'0 0.0
2014-Jul-19 16:12N 33°45' W 118°12'0 0.0
2014-Jul-19 15:30N 33°45' W 118°12'0 0.0
2014-Jul-19 14:33N 33°45' W 118°12'0 0.0
2014-Jul-19 13:30N 33°45' W 118°12'0 0.0
2014-Jul-19 12:30N 33°45' W 118°12'0 0.0
2014-Jul-19 11:06N 33°45' W 118°12'0 0.1
2014-Jul-19 10:33N 33°45' W 118°12'0 0.0
2014-Jul-19 09:24N 33°45' W 118°12'0 0.0
2014-Jul-19 07:12N 33°45' W 118°12'0 0.0
2014-Jul-19 06:30N 33°45' W 118°12'0 0.1
2014-Jul-19 05:30N 33°45' W 118°12'0 0.0
2014-Jul-19 04:24N 33°45' W 118°12'0 0.1
2014-Jul-19 03:30N 33°45' W 118°12'0 0.1
2014-Jul-19 02:33N 33°45' W 118°12'0 0.0
2014-Jul-18 23:24N 33°45' W 118°12'0 0.0
2014-Jul-18 22:18N 33°45' W 118°12'0 0.0
2014-Jul-18 21:24N 33°45' W 118°12'0 0.0
2014-Jul-18 20:24N 33°45' W 118°12'0 0.0
2014-Jul-18 19:24N 33°45' W 118°12'0 0.0
2014-Jul-18 18:33N 33°45' W 118°12'0 0.0
2014-Jul-18 08:18N 33°45' W 118°12'0 0.0
2014-Jul-18 06:24N 33°45' W 118°12'0 0.0
2014-Jul-18 05:18N 33°45' W 118°12'0 0.0
2014-Jul-18 04:30N 33°45' W 118°12'0 0.1
2014-Jul-18 03:33N 33°45' W 118°12'0 0.0
2014-Jul-18 02:30N 33°45' W 118°12'0 0.0
2014-Jul-18 01:24N 33°45' W 118°12'7 1.7
2014-Jul-17 21:32N 33°38' W 118°12'9 9.6
2014-Jul-17 20:33N 33°37' W 118°23'6911.0
2014-Jul-17 14:19N 34°07' W 119°37'912.4
2014-Jul-17 13:33N 34°10' W 119°48'1212.4
2014-Jul-17 12:33N 34°13' W 120°02'1312.6
2014-Jul-17 11:32N 34°16' W 120°17'7214.4
2014-Jul-17 06:33N 34°49' W 121°35'1616.3
2014-Jul-17 05:32N 34°58' W 121°51'1716.4
2014-Jul-17 04:31N 35°08' W 122°07'1616.4
2014-Jul-17 03:33N 35°18' W 122°23'1616.6
2014-Jul-17 02:33N 35°27' W 122°40'1716.5
2014-Jul-17 01:33N 35°37' W 122°56'1716.6
2014-Jul-17 00:33N 35°47' W 123°13'1717.4
2014-Jul-16 23:33N 35°57' W 123°30'1817.5
2014-Jul-16 22:33N 36°07' W 123°48'2317.1
2014-Jul-16 21:14N 36°20' W 124°10'1217.2
2014-Jul-16 20:33N 36°27' W 124°22'2117.1
2014-Jul-16 19:20N 36°39' W 124°43'1717.0
2014-Jul-16 18:19N 36°49' W 125°01'  
Track history (hours):
 
Tides and Currents Weather Stations Pressure Air Temp Water Temp Dewpoint Dewpoint Depression Visibility Wind Speed Wind Dir Waves Ship Positions

Bay Bridge

Last reported at 2014-Jul-23 18:33 UTC. Time now 2014-Jul-31 11:28 UTC.
Position N 38°32' W 124°23'.

Length 267 m; draft 11 m.

Type: Ship (hazmat cat A). MMSI: 354120000.

Date/timePositionNaut miles runAvg speedWind from/ knotsBaromVisibWave heightAir tempDewpointWater temp
2014-Jul-23 18:33N 38°32' W 124°23'1919.1
2014-Jul-23 17:33N 38°22' W 124°02'2019.6
2014-Jul-23 16:33N 38°12' W 123°40'1918.9
2014-Jul-23 15:33N 38°06' W 123°17'2019.6
2014-Jul-23 14:33N 37°54' W 122°58'1717.1
2014-Jul-23 13:33N 37°46' W 122°39'1413.9
2014-Jul-23 12:33N 37°48' W 122°21'2 1.8
2014-Jul-23 11:33N 37°49' W 122°19'0 0.0
2014-Jul-23 10:33N 37°49' W 122°19'0 0.0
2014-Jul-23 09:33N 37°49' W 122°19'0 0.0
2014-Jul-23 08:33N 37°49' W 122°19'0 0.0
2014-Jul-23 07:33N 37°49' W 122°19'0 0.0
2014-Jul-23 06:33N 37°49' W 122°19'0 0.0
2014-Jul-23 05:33N 37°49' W 122°19'0 0.0
2014-Jul-23 04:33N 37°49' W 122°19'0 0.0
2014-Jul-23 03:33N 37°49' W 122°19'0 0.0
2014-Jul-23 02:33N 37°49' W 122°19'0 0.0
2014-Jul-23 01:33N 37°49' W 122°19'0 0.0
2014-Jul-23 00:33N 37°49' W 122°19'0 0.0
2014-Jul-22 23:33N 37°49' W 122°19'0 0.0
2014-Jul-22 22:33N 37°49' W 122°19'0 0.0
2014-Jul-22 21:33N 37°49' W 122°19'0 0.0
2014-Jul-22 20:33N 37°49' W 122°19'0 0.0
2014-Jul-22 19:33N 37°49' W 122°19'0 0.0
2014-Jul-22 18:33N 37°49' W 122°19'0 0.0
2014-Jul-22 17:33N 37°49' W 122°19'0 0.0
2014-Jul-22 16:33N 37°49' W 122°19'0 0.0
2014-Jul-22 15:33N 37°49' W 122°19'0 0.0
2014-Jul-22 14:33N 37°49' W 122°19'0 0.0
2014-Jul-22 13:33N 37°49' W 122°19'4 4.0
2014-Jul-22 12:33N 37°49' W 122°24'1212.4
2014-Jul-22 11:33N 37°45' W 122°39'10 9.7
2014-Jul-22 10:33N 37°39' W 122°49'1111.2
2014-Jul-22 09:33N 37°33' W 123°01'1413.8
2014-Jul-22 08:33N 37°19' W 123°01'1817.6
2014-Jul-22 07:33N 37°02' W 122°56'1918.9
2014-Jul-22 06:33N 36°45' W 122°46'2020.1
2014-Jul-22 05:33N 36°27' W 122°35'2020.1
2014-Jul-22 04:33N 36°09' W 122°25'2020.2
2014-Jul-22 03:33N 35°52' W 122°11'2019.8
2014-Jul-22 02:33N 35°36' W 121°56'2219.7
2014-Jul-22 01:27N 35°19' W 121°40'4019.8
2014-Jul-21 23:26N 34°47' W 121°11'2519.0
2014-Jul-21 22:07N 34°27' W 120°52'2818.1
2014-Jul-21 20:33N 34°19' W 120°19'518.0
2014-Jul-21 20:18N 34°18' W 120°14'1318.1
2014-Jul-21 19:34N 34°14' W 119°58'1818.0
2014-Jul-21 18:33N 34°09' W 119°37'7712.8
2014-Jul-21 12:33N 33°41' W 118°12'4 1.2
2014-Jul-21 09:33N 33°45' W 118°12'0 0.0
2014-Jul-21 08:27N 33°45' W 118°12'0 0.0
2014-Jul-21 07:21N 33°45' W 118°12'0 0.0
2014-Jul-21 06:15N 33°45' W 118°12'0 0.0
2014-Jul-21 01:06N 33°45' W 118°12'0 0.0
2014-Jul-21 00:24N 33°45' W 118°12'0 0.0
2014-Jul-20 23:33N 33°45' W 118°12'0 0.0
2014-Jul-20 22:33N 33°45' W 118°12'0 0.1
2014-Jul-20 21:33N 33°45' W 118°12'0 0.0
2014-Jul-20 20:30N 33°45' W 118°12'0 0.0
2014-Jul-20 19:30N 33°45' W 118°12'0 0.1
2014-Jul-20 18:30N 33°45' W 118°12'0 0.1
2014-Jul-20 17:33N 33°45' W 118°12'0 0.0
2014-Jul-20 16:30N 33°45' W 118°12'0 0.0
2014-Jul-20 12:12N 33°45' W 118°12'0 0.0
2014-Jul-20 06:21N 33°45' W 118°12'0 0.0
2014-Jul-20 05:30N 33°45' W 118°12'0 0.0
2014-Jul-20 02:06N 33°45' W 118°12'0 0.1
2014-Jul-20 01:30N 33°45' W 118°12'0 0.0
2014-Jul-19 23:18N 33°45' W 118°12'0 0.1
2014-Jul-19 22:30N 33°45' W 118°12'0 0.0
2014-Jul-19 21:30N 33°45' W 118°12'0 0.0
2014-Jul-19 20:30N 33°45' W 118°12'0 0.0
2014-Jul-19 17:30N 33°45' W 118°12'0 0.0
2014-Jul-19 16:12N 33°45' W 118°12'0 0.0
2014-Jul-19 15:30N 33°45' W 118°12'0 0.0
2014-Jul-19 14:33N 33°45' W 118°12'0 0.0
2014-Jul-19 13:30N 33°45' W 118°12'0 0.0
2014-Jul-19 12:30N 33°45' W 118°12'0 0.0
2014-Jul-19 11:06N 33°45' W 118°12'0 0.1
2014-Jul-19 10:33N 33°45' W 118°12'0 0.0
2014-Jul-19 09:24N 33°45' W 118°12'0 0.0
2014-Jul-19 07:12N 33°45' W 118°12'0 0.0
2014-Jul-19 06:30N 33°45' W 118°12'0 0.1
2014-Jul-19 05:30N 33°45' W 118°12'0 0.0
2014-Jul-19 04:24N 33°45' W 118°12'0 0.1
2014-Jul-19 03:30N 33°45' W 118°12'0 0.1
2014-Jul-19 02:33N 33°45' W 118°12'0 0.0
2014-Jul-18 23:24N 33°45' W 118°12'0 0.0
2014-Jul-18 22:18N 33°45' W 118°12'0 0.0
2014-Jul-18 21:24N 33°45' W 118°12'0 0.0
2014-Jul-18 20:24N 33°45' W 118°12'0 0.0
2014-Jul-18 19:24N 33°45' W 118°12'0 0.0
2014-Jul-18 18:33N 33°45' W 118°12'0 0.0
2014-Jul-18 08:18N 33°45' W 118°12'0 0.0
2014-Jul-18 06:24N 33°45' W 118°12'0 0.0
2014-Jul-18 05:18N 33°45' W 118°12'0 0.0
2014-Jul-18 04:30N 33°45' W 118°12'0 0.1
2014-Jul-18 03:33N 33°45' W 118°12'0 0.0
2014-Jul-18 02:30N 33°45' W 118°12'0 0.0
2014-Jul-18 01:24N 33°45' W 118°12'7 1.7
2014-Jul-17 21:32N 33°38' W 118°12'9 9.6
2014-Jul-17 20:33N 33°37' W 118°23'6911.0
2014-Jul-17 14:19N 34°07' W 119°37'912.4
2014-Jul-17 13:33N 34°10' W 119°48'1212.4
2014-Jul-17 12:33N 34°13' W 120°02'1312.6
2014-Jul-17 11:32N 34°16' W 120°17'7214.4
2014-Jul-17 06:33N 34°49' W 121°35'1616.3
2014-Jul-17 05:32N 34°58' W 121°51'1716.4
2014-Jul-17 04:31N 35°08' W 122°07'1616.4
2014-Jul-17 03:33N 35°18' W 122°23'1616.6
2014-Jul-17 02:33N 35°27' W 122°40'1716.5
2014-Jul-17 01:33N 35°37' W 122°56'1716.6
2014-Jul-17 00:33N 35°47' W 123°13'1717.4
2014-Jul-16 23:33N 35°57' W 123°30'1817.5
2014-Jul-16 22:33N 36°07' W 123°48'2317.1
2014-Jul-16 21:14N 36°20' W 124°10'1217.2
2014-Jul-16 20:33N 36°27' W 124°22'2117.1
2014-Jul-16 19:20N 36°39' W 124°43'1717.0
2014-Jul-16 18:19N 36°49' W 125°01'  

Dump ship's entire track history